Time;durP1;ratioP1;P1;durP2;ratioP2;P2;SDS_P1;SDS_P2;PMS_P1;PMS_P2;Temp;Humidity;BMP_temperature;BMP_pressure;BME280_temperature;BME280_humidity;BME280_pressure;Samples;Min_cycle;Max_cycle;Signal;HPM_P1;HPM_P2
2021/08/03 00:01:15;;;;;;;3.70;2.33;;;15.40;93.50;;;;;;4988607;28;20430;-72
2021/08/03 00:03:59;;;;;;;4.23;2.70;;;15.40;93.70;;;;;;4987299;28;20473;-73
2021/08/03 00:06:29;;;;;;;3.70;2.47;;;15.40;94.10;;;;;;4988063;28;20765;-72
2021/08/03 00:08:59;;;;;;;4.30;2.43;;;15.40;94.00;;;;;;4986940;28;20449;-73
2021/08/03 00:11:27;;;;;;;4.40;2.53;;;15.50;94.10;;;;;;4985716;28;20908;-73
2021/08/03 00:13:53;;;;;;;4.53;2.40;;;15.50;94.10;;;;;;4988426;28;20432;-72
2021/08/03 00:16:20;;;;;;;3.47;2.40;;;15.50;93.80;;;;;;4992979;28;20422;-72
2021/08/03 00:18:45;;;;;;;7.20;2.67;;;15.60;93.30;;;;;;4992800;28;20480;-72
2021/08/03 00:21:11;;;;;;;3.80;2.70;;;15.50;92.70;;;;;;4990168;28;20782;-72
2021/08/03 00:23:44;;;;;;;5.53;2.40;;;15.40;93.00;;;;;;4986241;28;20201;-73
2021/08/03 00:26:12;;;;;;;4.03;2.13;;;15.40;93.00;;;;;;4989153;28;20806;-73
2021/08/03 00:28:39;;;;;;;5.57;2.33;;;15.40;93.10;;;;;;4986612;28;20438;-73
2021/08/03 00:31:06;;;;;;;3.30;2.40;;;15.40;93.10;;;;;;5000858;28;20429;-73
2021/08/03 00:33:32;;;;;;;2.80;1.90;;;15.50;93.30;;;;;;5013183;28;20414;-74
2021/08/03 00:35:57;;;;;;;4.40;2.40;;;15.50;93.70;;;;;;4995828;28;20488;-74
2021/08/03 00:38:23;;;;;;;7.03;2.63;;;15.60;93.70;;;;;;4983721;28;20218;-73
2021/08/03 00:40:59;;;;;;;3.73;2.57;;;15.60;93.60;;;;;;4993090;28;20215;-75
2021/08/03 00:43:24;;;;;;;4.70;2.33;;;15.60;93.40;;;;;;4992638;28;20668;-74
2021/08/03 00:45:50;;;;;;;3.87;2.30;;;15.70;93.40;;;;;;4990219;28;20430;-74
2021/08/03 00:48:16;;;;;;;3.70;2.27;;;15.70;93.40;;;;;;4991898;28;20212;-73
2021/08/03 00:50:43;;;;;;;3.20;2.33;;;15.70;93.10;;;;;;4983729;28;20555;-75
2021/08/03 00:53:09;;;;;;;4.30;2.10;;;15.70;92.90;;;;;;4988481;28;20192;-73
2021/08/03 00:55:37;;;;;;;6.70;2.43;;;15.80;92.90;;;;;;4985848;28;20988;-73
2021/08/03 00:58:04;;;;;;;4.97;2.80;;;15.70;93.00;;;;;;4985944;28;20224;-74
2021/08/03 01:00:30;;;;;;;5.43;2.73;;;15.80;93.10;;;;;;4986759;28;20444;-72
2021/08/03 01:02:55;;;;;;;3.23;2.13;;;15.80;92.80;;;;;;4990293;28;20505;-71
2021/08/03 01:05:23;;;;;;;3.47;2.13;;;15.90;92.50;;;;;;4985708;28;20211;-72
2021/08/03 01:08:07;;;;;;;3.53;2.40;;;15.80;92.20;;;;;;4987752;28;20198;-71
2021/08/03 01:10:51;;;;;;;2.93;2.13;;;15.90;92.10;;;;;;4982561;28;20762;-73
2021/08/03 01:13:36;;;;;;;3.00;2.13;;;15.80;91.90;;;;;;4986928;28;20463;-73
2021/08/03 01:16:07;;;;;;;3.90;2.30;;;15.80;91.60;;;;;;4989084;28;20533;-72
2021/08/03 01:18:51;;;;;;;4.10;2.40;;;15.90;91.30;;;;;;4982105;28;20501;-72
2021/08/03 01:21:50;;;;;;;3.67;2.60;;;15.80;91.10;;;;;;4987799;28;20426;-72
2021/08/03 01:24:16;;;;;;;6.50;2.43;;;15.80;91.50;;;;;;4987553;28;20444;-72
2021/08/03 01:27:00;;;;;;;5.03;2.27;;;15.70;91.60;;;;;;4989991;28;20423;-73
2021/08/03 01:29:27;;;;;;;3.40;2.53;;;15.70;91.50;;;;;;4987921;28;20254;-72
2021/08/03 01:32:00;;;;;;;2.50;1.90;;;15.70;91.90;;;;;;4989520;28;20430;-72
2021/08/03 01:34:29;;;;;;;4.20;2.50;;;15.60;92.20;;;;;;4985401;28;20434;-73
2021/08/03 01:36:57;;;;;;;3.83;2.30;;;15.70;92.30;;;;;;4988767;28;20464;-72
2021/08/03 01:39:33;;;;;;;5.93;2.33;;;15.70;92.70;;;;;;4989592;28;20490;-72
2021/08/03 01:42:00;;;;;;;5.20;2.73;;;15.70;92.80;;;;;;4991725;28;20415;-71
2021/08/03 01:44:26;;;;;;;4.00;2.50;;;15.70;92.90;;;;;;4989873;28;20524;-71
2021/08/03 01:46:54;;;;;;;3.60;2.53;;;15.70;93.00;;;;;;4983729;28;20457;-73
2021/08/03 01:49:22;;;;;;;4.00;2.87;;;15.60;93.10;;;;;;4985813;28;20442;-72
2021/08/03 01:51:50;;;;;;;5.17;2.37;;;15.60;93.30;;;;;;4990437;28;20480;-73
2021/08/03 01:54:16;;;;;;;10.23;2.50;;;15.60;93.30;;;;;;4983752;28;20431;-73
2021/08/03 01:56:45;;;;;;;4.40;2.57;;;15.60;93.20;;;;;;4989386;28;20446;-74
2021/08/03 01:59:12;;;;;;;5.63;2.50;;;15.50;93.30;;;;;;4981625;28;20477;-73
2021/08/03 02:01:39;;;;;;;3.37;2.20;;;15.50;93.30;;;;;;4987973;28;20496;-73
2021/08/03 02:04:06;;;;;;;4.60;2.40;;;15.50;93.40;;;;;;4987969;28;20427;-73
2021/08/03 02:06:33;;;;;;;2.80;2.03;;;15.50;93.50;;;;;;4988423;28;21296;-71
2021/08/03 02:09:00;;;;;;;3.80;2.60;;;15.50;93.60;;;;;;4984661;28;20933;-73
2021/08/03 02:11:30;;;;;;;4.40;2.73;;;15.50;93.60;;;;;;4983781;28;20483;-72
2021/08/03 02:13:57;;;;;;;3.90;2.70;;;15.50;93.50;;;;;;4983638;28;20453;-71
2021/08/03 02:16:22;;;;;;;3.47;2.47;;;15.50;93.40;;;;;;4984938;28;20426;-72
2021/08/03 02:18:48;;;;;;;4.03;2.23;;;15.40;92.90;;;;;;4986899;28;20477;-72
2021/08/03 02:21:21;;;;;;;10.13;2.50;;;15.40;92.10;;;;;;4990931;28;20513;-72
2021/08/03 02:23:49;;;;;;;3.10;2.03;;;15.40;92.00;;;;;;4990992;28;20176;-72
2021/08/03 02:26:15;;;;;;;2.93;2.03;;;15.30;92.20;;;;;;4984076;28;20900;-73
2021/08/03 02:28:42;;;;;;;5.17;2.33;;;15.30;92.40;;;;;;4995364;28;20441;-74
2021/08/03 02:31:14;;;;;;;3.70;2.17;;;15.30;92.60;;;;;;4990575;28;20943;-72
2021/08/03 02:33:50;;;;;;;5.20;2.77;;;15.30;92.90;;;;;;4985564;28;20429;-73
2021/08/03 02:36:21;;;;;;;4.00;2.73;;;15.30;92.60;;;;;;4985151;28;20992;-72
2021/08/03 02:38:51;;;;;;;5.30;3.00;;;15.40;92.50;;;;;;4988702;28;20923;-73
2021/08/03 02:41:18;;;;;;;3.77;2.83;;;15.50;92.70;;;;;;4990689;28;20441;-72
2021/08/03 02:43:46;;;;;;;3.90;2.10;;;15.60;92.00;;;;;;4989913;28;20531;-72
2021/08/03 02:46:14;;;;;;;4.10;2.40;;;15.60;91.80;;;;;;4982910;28;20446;-72
2021/08/03 02:48:41;;;;;;;4.50;2.40;;;15.60;91.50;;;;;;4987752;28;20935;-74
2021/08/03 02:51:09;;;;;;;3.37;2.50;;;15.60;91.40;;;;;;4979367;28;20459;-72
2021/08/03 02:53:50;;;;;;;7.53;2.37;;;15.60;91.50;;;;;;4987797;28;20433;-72
2021/08/03 02:56:19;;;;;;;5.03;2.47;;;15.60;91.40;;;;;;4988386;28;20429;-71
2021/08/03 02:59:07;;;;;;;3.00;2.07;;;15.60;91.40;;;;;;4984724;28;20585;-72
2021/08/03 03:01:36;;;;;;;5.53;2.43;;;15.60;91.30;;;;;;4983619;28;20422;-72
2021/08/03 03:04:10;;;;;;;2.27;1.90;;;15.50;91.10;;;;;;4988973;28;20435;-73
2021/08/03 03:06:38;;;;;;;3.80;2.20;;;15.60;91.10;;;;;;4981858;28;20424;-72
2021/08/03 03:09:03;;;;;;;2.67;2.37;;;15.60;91.00;;;;;;4986642;28;20450;-74
2021/08/03 03:11:32;;;;;;;2.40;2.10;;;15.60;91.00;;;;;;4989009;28;20418;-72
2021/08/03 03:14:01;;;;;;;10.60;2.70;;;15.60;90.50;;;;;;4983202;28;20214;-74
2021/08/03 03:16:29;;;;;;;4.93;2.83;;;15.60;90.60;;;;;;4985578;28;20447;-73
2021/08/03 03:18:56;;;;;;;4.40;2.00;;;15.60;91.20;;;;;;4987649;28;20485;-70
2021/08/03 03:21:25;;;;;;;4.17;2.17;;;15.70;91.10;;;;;;4989762;28;20447;-73
2021/08/03 03:23:53;;;;;;;2.37;2.07;;;15.60;91.30;;;;;;4986421;28;20793;-74
2021/08/03 03:26:23;;;;;;;4.20;2.50;;;15.60;91.50;;;;;;4964974;28;20435;-72
2021/08/03 03:28:50;;;;;;;2.70;2.20;;;15.50;91.80;;;;;;4986311;28;20446;-71
2021/08/03 03:31:17;;;;;;;5.20;2.63;;;15.50;91.60;;;;;;4985922;28;20414;-72
2021/08/03 03:33:43;;;;;;;2.70;2.00;;;15.40;91.20;;;;;;4987448;28;20476;-73
2021/08/03 03:36:11;;;;;;;5.23;2.40;;;15.40;91.00;;;;;;4989838;28;20428;-73
2021/08/03 03:38:38;;;;;;;2.70;2.40;;;15.40;91.10;;;;;;4990268;28;20469;-74
2021/08/03 03:41:05;;;;;;;4.40;2.50;;;15.40;91.00;;;;;;4986351;28;20518;-73
2021/08/03 03:43:31;;;;;;;5.67;2.57;;;15.30;91.10;;;;;;4996212;28;20426;-72
2021/08/03 03:46:05;;;;;;;3.47;2.40;;;15.30;91.40;;;;;;5007595;28;20572;-74
2021/08/03 03:48:33;;;;;;;4.83;2.13;;;15.30;91.70;;;;;;4998525;28;20250;-73
2021/08/03 03:51:01;;;;;;;4.47;2.30;;;15.20;92.00;;;;;;4982726;28;20797;-73
2021/08/03 03:53:42;;;;;;;2.90;2.07;;;15.20;92.10;;;;;;4985464;28;20998;-73
2021/08/03 03:56:09;;;;;;;2.87;2.27;;;15.20;92.40;;;;;;4986499;28;20552;-73
2021/08/03 03:58:40;;;;;;;4.40;2.53;;;15.20;92.60;;;;;;4982987;28;20482;-75
2021/08/03 04:01:06;;;;;;;3.50;2.50;;;15.10;92.90;;;;;;4988284;28;20920;-75
2021/08/03 04:03:36;;;;;;;4.33;2.60;;;15.10;93.00;;;;;;4992028;28;21002;-73
2021/08/03 04:06:03;;;;;;;5.20;2.73;;;15.00;93.30;;;;;;4989853;28;20426;-73
2021/08/03 04:08:30;;;;;;;3.80;2.50;;;15.00;93.30;;;;;;4985064;28;20450;-74
2021/08/03 04:11:01;;;;;;;6.93;2.60;;;15.00;93.20;;;;;;4988090;28;21054;-74
2021/08/03 04:13:27;;;;;;;4.10;2.30;;;14.90;93.40;;;;;;4981291;28;20438;-73
2021/08/03 04:15:53;;;;;;;4.63;2.77;;;14.90;93.40;;;;;;4987539;28;20512;-72
2021/08/03 04:18:19;;;;;;;4.00;2.70;;;14.90;93.50;;;;;;4987180;28;20915;-73
2021/08/03 04:20:44;;;;;;;5.57;3.20;;;15.00;93.30;;;;;;4991320;28;20190;-74
2021/08/03 04:23:10;;;;;;;4.10;2.80;;;14.90;93.20;;;;;;4986106;28;20258;-72
2021/08/03 04:25:36;;;;;;;5.60;2.70;;;14.90;93.50;;;;;;4985511;28;20180;-74
2021/08/03 04:28:02;;;;;;;4.17;2.60;;;14.90;93.60;;;;;;4985175;28;20215;-73
2021/08/03 04:30:28;;;;;;;3.50;2.33;;;14.80;93.80;;;;;;4992385;28;20663;-74
2021/08/03 04:32:53;;;;;;;4.63;2.70;;;14.80;93.80;;;;;;4982978;28;20434;-72
2021/08/03 04:35:19;;;;;;;3.80;2.20;;;14.90;93.40;;;;;;4989985;28;20226;-74
2021/08/03 04:37:47;;;;;;;3.23;2.20;;;14.80;93.00;;;;;;4987281;28;20216;-72
2021/08/03 04:40:15;;;;;;;4.13;2.60;;;14.80;93.10;;;;;;4992382;28;20187;-74
2021/08/03 04:42:42;;;;;;;7.60;2.67;;;14.90;93.20;;;;;;4992904;28;20764;-73
2021/08/03 04:45:09;;;;;;;7.03;3.00;;;15.00;93.10;;;;;;4992293;28;20442;-74
2021/08/03 04:47:43;;;;;;;4.33;3.17;;;15.00;92.90;;;;;;4984822;28;20913;-74
2021/08/03 04:50:11;;;;;;;6.23;3.00;;;15.00;93.10;;;;;;4988583;28;20476;-74
2021/08/03 04:52:37;;;;;;;4.67;2.40;;;15.00;93.20;;;;;;4983840;28;20545;-73
2021/08/03 04:55:03;;;;;;;4.63;3.10;;;15.00;93.10;;;;;;4987250;28;20458;-72
2021/08/03 04:57:28;;;;;;;5.00;2.70;;;15.10;93.10;;;;;;4987647;28;20647;-73
2021/08/03 04:59:56;;;;;;;5.70;2.83;;;15.10;93.00;;;;;;4984428;28;20504;-71
2021/08/03 05:02:21;;;;;;;4.80;2.57;;;15.20;92.90;;;;;;4987345;28;20266;-73
2021/08/03 05:04:47;;;;;;;5.00;3.20;;;15.20;92.70;;;;;;4991517;28;20842;-73
2021/08/03 05:07:13;;;;;;;3.93;2.47;;;15.30;92.70;;;;;;4983114;28;20191;-73
2021/08/03 05:09:39;;;;;;;4.27;2.40;;;15.40;92.60;;;;;;4982102;28;20301;-72
2021/08/03 05:12:05;;;;;;;3.53;2.50;;;15.40;92.30;;;;;;4985292;28;20522;-73
2021/08/03 05:14:31;;;;;;;4.23;3.10;;;15.50;92.10;;;;;;4983239;28;20190;-72
2021/08/03 05:16:58;;;;;;;4.70;2.47;;;15.60;91.90;;;;;;4989144;28;20516;-72
2021/08/03 05:19:24;;;;;;;3.73;2.50;;;15.60;91.70;;;;;;4990854;28;20485;-72
2021/08/03 05:21:49;;;;;;;2.73;2.20;;;15.70;91.40;;;;;;4992060;28;20925;-73
2021/08/03 05:24:15;;;;;;;4.40;2.43;;;15.70;90.90;;;;;;4989656;28;20637;-73
2021/08/03 05:26:41;;;;;;;3.93;3.00;;;15.70;90.90;;;;;;4986724;28;20418;-74
2021/08/03 05:29:07;;;;;;;4.10;2.43;;;15.80;90.90;;;;;;4988522;28;20211;-73
2021/08/03 05:31:33;;;;;;;4.53;2.70;;;15.80;90.70;;;;;;4990863;28;20513;-72
2021/08/03 05:34:00;;;;;;;4.63;2.50;;;15.80;90.70;;;;;;4984197;28;20264;-73
2021/08/03 05:36:26;;;;;;;5.43;2.70;;;15.80;90.80;;;;;;4989005;28;20240;-74
2021/08/03 05:38:51;;;;;;;5.93;3.00;;;15.90;90.80;;;;;;4997552;28;20470;-74
2021/08/03 05:41:17;;;;;;;4.67;2.97;;;15.90;90.90;;;;;;4993369;28;20829;-72
2021/08/03 05:43:43;;;;;;;4.07;2.30;;;16.00;90.60;;;;;;4992036;28;20202;-73
2021/08/03 05:46:09;;;;;;;3.30;2.23;;;15.90;89.00;;;;;;4984944;28;20743;-73
2021/08/03 05:48:34;;;;;;;4.03;2.90;;;15.90;89.30;;;;;;4990846;28;20216;-73
2021/08/03 05:51:00;;;;;;;10.20;2.83;;;16.00;89.30;;;;;;4987552;28;20183;-74
2021/08/03 05:53:26;;;;;;;5.50;2.67;;;16.00;88.70;;;;;;4988837;28;20191;-73
2021/08/03 05:55:51;;;;;;;3.03;2.20;;;15.90;88.70;;;;;;4985519;28;20570;-74
2021/08/03 05:58:17;;;;;;;4.47;2.67;;;16.00;89.30;;;;;;4987033;28;20250;-74
2021/08/03 06:00:44;;;;;;;5.63;3.03;;;16.20;89.50;;;;;;4983736;28;20194;-73
2021/08/03 06:03:10;;;;;;;6.87;2.87;;;16.30;89.50;;;;;;4986857;28;20183;-72
2021/08/03 06:05:39;;;;;;;3.40;2.30;;;16.40;89.50;;;;;;4988888;28;20901;-72
2021/08/03 06:08:10;;;;;;;4.20;2.40;;;16.50;89.30;;;;;;4982835;28;20302;-73
2021/08/03 06:10:37;;;;;;;6.80;2.90;;;16.60;88.70;;;;;;4987388;28;20924;-73
2021/08/03 06:13:05;;;;;;;3.40;2.73;;;16.70;88.30;;;;;;4981726;28;20952;-74
2021/08/03 06:15:38;;;;;;;7.27;2.33;;;16.80;87.80;;;;;;4977638;28;20425;-72
2021/08/03 06:18:10;;;;;;;7.67;2.70;;;16.80;86.50;;;;;;4987110;28;21029;-73
2021/08/03 06:20:36;;;;;;;4.10;2.40;;;16.80;85.20;;;;;;4983822;28;20515;-73
2021/08/03 06:23:02;;;;;;;3.70;2.37;;;16.80;84.70;;;;;;4985556;28;20960;-74
2021/08/03 06:25:28;;;;;;;4.87;2.37;;;16.80;84.10;;;;;;4991887;28;20191;-73
2021/08/03 06:27:54;;;;;;;4.40;2.83;;;16.90;84.30;;;;;;4983797;28;20530;-72
2021/08/03 06:30:21;;;;;;;3.10;2.27;;;17.00;84.30;;;;;;4988164;28;20435;-72
2021/08/03 06:32:48;;;;;;;3.27;2.47;;;17.00;82.80;;;;;;4987602;28;20671;-74
2021/08/03 06:35:15;;;;;;;4.17;2.23;;;17.10;83.30;;;;;;4988772;28;20428;-72
2021/08/03 06:37:41;;;;;;;4.03;2.40;;;17.10;83.10;;;;;;4987937;28;20458;-74
2021/08/03 06:40:09;;;;;;;3.20;2.50;;;17.20;82.80;;;;;;4997154;28;20478;-73
2021/08/03 06:42:53;;;;;;;4.07;2.10;;;17.30;82.10;;;;;;4993472;28;20190;-75
2021/08/03 06:45:31;;;;;;;8.10;2.70;;;17.40;82.20;;;;;;4994931;28;20451;-73
2021/08/03 06:48:13;;;;;;;7.50;2.03;;;17.60;81.10;;;;;;4998506;28;20456;-72
2021/08/03 06:50:48;;;;;;;5.20;2.30;;;17.70;81.20;;;;;;4989550;28;20442;-72
2021/08/03 06:53:15;;;;;;;3.67;2.30;;;17.90;79.50;;;;;;4991686;28;20508;-73
2021/08/03 06:55:45;;;;;;;4.13;1.80;;;18.00;77.80;;;;;;4999417;28;20474;-76
2021/08/03 06:58:40;;;;;;;3.43;2.40;;;18.00;76.40;;;;;;5004707;28;20473;-73
2021/08/03 07:01:15;;;;;;;2.40;2.00;;;18.10;76.70;;;;;;4997114;28;20429;-75
2021/08/03 07:03:46;;;;;;;4.00;2.17;;;18.30;75.90;;;;;;4984336;28;20455;-73
2021/08/03 07:06:14;;;;;;;4.83;2.33;;;18.40;75.80;;;;;;4993426;28;20413;-76
2021/08/03 07:08:41;;;;;;;4.57;2.27;;;18.40;75.50;;;;;;4990938;28;20835;-76
2021/08/03 07:11:08;;;;;;;3.90;2.40;;;18.60;75.50;;;;;;4987426;28;20433;-75
2021/08/03 07:13:38;;;;;;;4.23;2.10;;;18.80;74.80;;;;;;4989238;28;20466;-74
2021/08/03 07:16:04;;;;;;;2.70;1.87;;;18.90;74.60;;;;;;4993098;28;20433;-74
2021/08/03 07:18:30;;;;;;;3.07;1.70;;;19.00;73.60;;;;;;4986511;28;20481;-72
2021/08/03 07:20:56;;;;;;;2.83;1.80;;;19.00;72.60;;;;;;4991806;28;20427;-73
2021/08/03 07:23:22;;;;;;;2.47;1.93;;;19.10;72.90;;;;;;4992842;28;20427;-73
2021/08/03 07:25:50;;;;;;;2.73;1.90;;;19.00;73.60;;;;;;4991472;28;20476;-72
2021/08/03 07:28:18;;;;;;;2.47;1.63;;;19.00;74.00;;;;;;4991266;28;20439;-73
2021/08/03 07:30:43;;;;;;;2.90;2.03;;;19.00;73.30;;;;;;4989581;28;20794;-73
2021/08/03 07:33:18;;;;;;;3.83;2.40;;;18.90;73.70;;;;;;4987702;28;20429;-72
2021/08/03 07:35:44;;;;;;;6.00;2.23;;;18.90;74.60;;;;;;4992863;28;20850;-75
2021/08/03 07:38:11;;;;;;;4.13;2.00;;;19.00;73.70;;;;;;4996068;28;20598;-72
2021/08/03 07:40:36;;;;;;;2.50;1.77;;;19.00;73.30;;;;;;4995179;28;20221;-73
2021/08/03 07:43:04;;;;;;;2.77;2.03;;;19.00;73.30;;;;;;4997255;28;20483;-76
2021/08/03 07:45:31;;;;;;;4.33;2.20;;;19.00;73.00;;;;;;4994049;28;20188;-74
2021/08/03 07:47:58;;;;;;;3.10;1.83;;;19.10;72.70;;;;;;4988369;28;20868;-73
2021/08/03 07:50:27;;;;;;;8.27;2.47;;;19.10;73.00;;;;;;4995792;28;20450;-72
2021/08/03 07:52:54;;;;;;;2.70;2.00;;;19.10;73.60;;;;;;4993085;28;20431;-72
2021/08/03 07:55:20;;;;;;;4.00;1.87;;;19.20;73.50;;;;;;4994165;28;20854;-74
2021/08/03 07:57:45;;;;;;;4.67;2.60;;;19.40;73.00;;;;;;4996121;28;20471;-73
2021/08/03 08:00:11;;;;;;;3.20;2.20;;;19.50;72.70;;;;;;4988720;28;20434;-76
2021/08/03 08:02:37;;;;;;;3.63;2.60;;;19.50;72.30;;;;;;4995504;28;20453;-74
2021/08/03 08:05:03;;;;;;;3.40;2.10;;;19.40;73.00;;;;;;4983733;28;20258;-74
2021/08/03 08:07:29;;;;;;;4.70;2.30;;;19.40;73.70;;;;;;4986451;28;20228;-72
2021/08/03 08:09:55;;;;;;;3.20;1.83;;;19.50;72.70;;;;;;4992878;28;20420;-74
2021/08/03 08:12:20;;;;;;;3.10;2.10;;;19.50;73.20;;;;;;4994036;28;20739;-75
2021/08/03 08:14:46;;;;;;;2.40;1.83;;;19.60;72.30;;;;;;4995525;28;20240;-75
2021/08/03 08:17:12;;;;;;;2.97;2.20;;;19.80;72.60;;;;;;4989582;28;20219;-74
2021/08/03 08:19:38;;;;;;;3.67;2.10;;;19.90;71.30;;;;;;4996809;28;20207;-72
2021/08/03 08:22:04;;;;;;;3.50;2.20;;;20.10;71.10;;;;;;4996989;28;20175;-74
2021/08/03 08:24:30;;;;;;;3.00;1.90;;;20.20;71.10;;;;;;4990090;28;20717;-71
2021/08/03 08:26:56;;;;;;;2.47;1.80;;;20.20;70.80;;;;;;4995248;28;20442;-72
2021/08/03 08:29:21;;;;;;;3.20;2.20;;;20.20;70.40;;;;;;4987794;28;20221;-76
2021/08/03 08:31:47;;;;;;;8.30;1.90;;;20.30;70.50;;;;;;4999194;28;20198;-72
2021/08/03 08:34:14;;;;;;;3.90;2.20;;;20.30;70.80;;;;;;4990850;28;20179;-74
2021/08/03 08:36:40;;;;;;;3.90;2.00;;;20.40;69.80;;;;;;4996085;28;20182;-71
2021/08/03 08:39:06;;;;;;;3.60;2.10;;;20.50;70.40;;;;;;4988713;28;20553;-71
2021/08/03 08:41:34;;;;;;;4.60;2.13;;;20.60;70.10;;;;;;4994280;28;20492;-72
2021/08/03 08:44:04;;;;;;;6.43;2.37;;;20.70;70.20;;;;;;4992797;28;20505;-72
2021/08/03 08:46:37;;;;;;;3.77;2.40;;;20.70;70.10;;;;;;4980701;28;20456;-73
2021/08/03 08:49:05;;;;;;;3.10;1.93;;;20.60;69.80;;;;;;4987692;28;20454;-80
2021/08/03 08:51:32;;;;;;;4.60;2.37;;;20.40;71.10;;;;;;4985623;28;20517;-73
2021/08/03 08:53:58;;;;;;;8.80;2.30;;;20.30;71.30;;;;;;4988414;28;20415;-72
2021/08/03 08:56:26;;;;;;;4.00;2.30;;;20.30;71.70;;;;;;4992251;28;20477;-72
2021/08/03 08:58:52;;;;;;;8.00;2.17;;;20.50;71.70;;;;;;4987479;28;20474;-73
2021/08/03 09:01:17;;;;;;;4.70;2.73;;;20.70;70.80;;;;;;4991717;28;20410;-76
2021/08/03 09:03:43;;;;;;;2.73;2.07;;;20.80;71.10;;;;;;4991561;28;20175;-72
2021/08/03 09:06:10;;;;;;;3.13;2.00;;;20.90;70.50;;;;;;4990028;28;20180;-73
2021/08/03 09:08:43;;;;;;;2.90;2.10;;;21.00;69.80;;;;;;4993088;28;20712;-71
2021/08/03 09:11:14;;;;;;;6.53;2.00;;;21.10;69.20;;;;;;4993745;28;20516;-73
2021/08/03 09:14:00;;;;;;;4.77;2.67;;;20.90;68.90;;;;;;4990688;28;20437;-73
2021/08/03 09:16:28;;;;;;;4.33;2.13;;;20.80;70.80;;;;;;4996302;28;20521;-72
2021/08/03 09:18:54;;;;;;;5.53;2.27;;;20.90;70.50;;;;;;4988488;28;20539;-73
2021/08/03 09:21:26;;;;;;;5.10;2.20;;;21.00;69.80;;;;;;4991295;28;20422;-71
2021/08/03 09:23:58;;;;;;;2.60;2.17;;;20.90;68.60;;;;;;4986945;28;20471;-72
2021/08/03 09:26:49;;;;;;;3.17;2.10;;;20.80;68.60;;;;;;4992008;28;20516;-72
2021/08/03 09:29:17;;;;;;;3.87;2.40;;;20.60;70.20;;;;;;4992210;28;20525;-73
2021/08/03 09:31:52;;;;;;;3.77;2.47;;;20.30;70.50;;;;;;4987842;28;20421;-74
2021/08/03 09:34:18;;;;;;;6.13;2.17;;;20.00;74.60;;;;;;4988415;28;20430;-74
2021/08/03 09:36:48;;;;;;;5.03;3.17;;;19.50;78.40;;;;;;4985581;28;20428;-72
2021/08/03 09:39:33;;;;;;;7.23;2.83;;;19.20;80.80;;;;;;4989776;28;20278;-76
2021/08/03 09:41:58;;;;;;;4.57;2.40;;;18.60;83.00;;;;;;4986388;28;20437;-72
2021/08/03 09:44:24;;;;;;;6.43;1.77;;;18.00;85.20;;;;;;4989290;28;20425;-73
2021/08/03 09:46:57;;;;;;;3.20;1.80;;;17.70;84.90;;;;;;4991219;28;20182;-73
2021/08/03 09:49:38;;;;;;;3.10;1.90;;;17.60;85.60;;;;;;4995146;28;20209;-73
2021/08/03 09:52:08;;;;;;;2.10;1.40;;;17.50;85.70;;;;;;4993117;28;20413;-73
2021/08/03 09:54:35;;;;;;;2.10;1.37;;;17.40;86.60;;;;;;4991621;28;20422;-74
2021/08/03 09:57:02;;;;;;;2.00;1.60;;;17.30;87.40;;;;;;4991425;28;21065;-71
2021/08/03 09:59:37;;;;;;;2.17;1.60;;;17.40;87.70;;;;;;4991097;28;20504;-73
2021/08/03 10:02:04;;;;;;;8.53;2.37;;;17.50;88.10;;;;;;4991749;28;20488;-73
2021/08/03 10:04:32;;;;;;;3.20;1.70;;;17.40;87.70;;;;;;4991383;28;20831;-73
2021/08/03 10:06:58;;;;;;;3.03;2.03;;;17.20;88.90;;;;;;4985017;28;20427;-73
2021/08/03 10:09:26;;;;;;;3.17;1.90;;;17.30;89.00;;;;;;4988985;28;20460;-74
2021/08/03 10:11:54;;;;;;;4.07;2.00;;;17.30;89.70;;;;;;4987012;28;20465;-73
2021/08/03 10:14:21;;;;;;;2.10;1.57;;;17.30;90.20;;;;;;4992716;28;20462;-73
2021/08/03 10:16:47;;;;;;;7.60;2.67;;;17.30;89.60;;;;;;5003419;28;20408;-74
2021/08/03 10:19:22;;;;;;;2.63;2.00;;;17.40;91.10;;;;;;5009212;28;20477;-73
2021/08/03 10:22:14;;;;;;;3.07;1.47;;;17.40;90.60;;;;;;4994782;28;20423;-73
2021/08/03 10:25:06;;;;;;;4.07;2.03;;;17.30;90.80;;;;;;4989321;28;20500;-74
2021/08/03 10:27:46;;;;;;;2.80;1.83;;;17.60;91.10;;;;;;4987988;28;20742;-72
2021/08/03 10:30:27;;;;;;;5.13;2.00;;;17.80;90.20;;;;;;4986777;28;20440;-74
2021/08/03 10:33:09;;;;;;;5.57;2.43;;;18.00;89.20;;;;;;4986502;28;20445;-74
2021/08/03 10:35:49;;;;;;;2.70;2.00;;;18.20;88.10;;;;;;4989659;28;20436;-72
2021/08/03 10:38:19;;;;;;;4.57;2.40;;;18.10;87.70;;;;;;4990291;28;20560;-74
2021/08/03 10:40:48;;;;;;;2.93;2.00;;;18.30;88.70;;;;;;4990456;28;20424;-74
2021/08/03 10:43:22;;;;;;;3.53;1.87;;;18.50;87.10;;;;;;4991707;28;20421;-72
2021/08/03 10:46:08;;;;;;;3.50;2.30;;;18.60;86.90;;;;;;4985186;28;20925;-72
2021/08/03 10:48:37;;;;;;;3.23;2.10;;;18.70;86.80;;;;;;4980742;28;20450;-73
2021/08/03 10:51:18;;;;;;;4.17;2.70;;;19.00;85.20;;;;;;4980190;28;20487;-72
2021/08/03 10:54:08;;;;;;;3.90;2.40;;;19.10;84.10;;;;;;4984081;28;20505;-73
2021/08/03 10:57:01;;;;;;;3.83;2.27;;;19.20;85.00;;;;;;4985013;28;21068;-74
2021/08/03 10:59:39;;;;;;;6.10;2.20;;;19.20;85.30;;;;;;4982621;28;20491;-73
2021/08/03 11:02:06;;;;;;;4.90;2.33;;;19.20;84.90;;;;;;4986084;28;20479;-74
2021/08/03 11:04:52;;;;;;;3.67;2.20;;;19.20;86.20;;;;;;4991184;28;20420;-74
2021/08/03 11:07:27;;;;;;;2.80;2.30;;;19.10;85.70;;;;;;4996545;28;20907;-74
2021/08/03 11:10:14;;;;;;;4.00;2.27;;;19.20;86.00;;;;;;4994982;28;20434;-73
2021/08/03 11:12:48;;;;;;;3.50;2.03;;;19.20;85.60;;;;;;4983982;28;20874;-73
2021/08/03 11:15:20;;;;;;;4.43;2.07;;;19.40;85.90;;;;;;4989931;28;20426;-75
2021/08/03 11:18:12;;;;;;;2.93;2.20;;;19.50;86.30;;;;;;4997449;28;20819;-72
2021/08/03 11:20:37;;;;;;;2.97;1.77;;;19.40;85.60;;;;;;4990882;28;20791;-74
2021/08/03 11:23:13;;;;;;;4.30;2.13;;;19.20;86.30;;;;;;4997005;28;20412;-73
2021/08/03 11:25:41;;;;;;;3.20;1.90;;;19.20;85.70;;;;;;4997275;28;20289;-73
2021/08/03 11:28:18;;;;;;;4.77;2.10;;;19.10;86.00;;;;;;4995361;28;20438;-73
2021/08/03 11:30:46;;;;;;;3.93;2.23;;;19.10;87.60;;;;;;4995058;28;20475;-73
2021/08/03 11:33:14;;;;;;;4.50;2.13;;;19.10;87.30;;;;;;4996907;28;20509;-72
2021/08/03 11:35:40;;;;;;;4.17;2.30;;;19.20;87.40;;;;;;4996216;28;20839;-75
2021/08/03 11:38:09;;;;;;;3.53;2.20;;;19.40;87.30;;;;;;4998223;28;20848;-73
2021/08/03 11:40:36;;;;;;;3.17;1.87;;;19.50;88.00;;;;;;4997709;28;20418;-73
2021/08/03 11:43:03;;;;;;;3.80;2.53;;;19.70;87.40;;;;;;4998337;28;20424;-74
2021/08/03 11:45:29;;;;;;;3.70;2.50;;;19.90;84.90;;;;;;4994552;28;20452;-73
2021/08/03 11:48:00;;;;;;;3.30;2.03;;;20.00;83.40;;;;;;4998631;28;20456;-75
2021/08/03 11:50:31;;;;;;;4.47;2.47;;;20.30;84.00;;;;;;4990496;28;20426;-75
2021/08/03 11:53:16;;;;;;;3.17;2.20;;;20.80;83.10;;;;;;4994528;28;20697;-74
2021/08/03 11:55:47;;;;;;;4.13;2.10;;;21.00;80.90;;;;;;4990418;28;20419;-73
2021/08/03 11:58:22;;;;;;;3.33;2.10;;;21.10;76.40;;;;;;4990431;28;20458;-73
2021/08/03 12:00:52;;;;;;;3.03;2.20;;;20.70;73.70;;;;;;4989147;28;20689;-73
2021/08/03 12:03:28;;;;;;;2.57;1.93;;;20.60;75.10;;;;;;4991613;28;20424;-73
2021/08/03 12:05:54;;;;;;;3.20;2.17;;;20.40;75.70;;;;;;4996797;28;20600;-74
2021/08/03 12:08:20;;;;;;;3.37;2.03;;;20.50;76.10;;;;;;4989479;28;20449;-74
2021/08/03 12:10:49;;;;;;;3.37;2.00;;;20.40;75.40;;;;;;4996818;28;20417;-74
2021/08/03 12:13:27;;;;;;;3.57;2.03;;;20.50;75.50;;;;;;4992981;28;20445;-74
2021/08/03 12:15:55;;;;;;;5.67;1.97;;;20.50;75.20;;;;;;4996835;28;20417;-73
2021/08/03 12:18:22;;;;;;;3.00;1.80;;;20.60;75.10;;;;;;4989145;28;20833;-73
2021/08/03 12:20:54;;;;;;;2.60;1.90;;;20.70;74.80;;;;;;4985744;28;20986;-73
2021/08/03 12:23:23;;;;;;;3.47;2.03;;;20.60;75.70;;;;;;4987020;28;20458;-71
2021/08/03 12:25:53;;;;;;;3.50;2.10;;;20.20;73.70;;;;;;4991673;28;20486;-72
2021/08/03 12:28:38;;;;;;;3.00;1.60;;;19.90;75.10;;;;;;4987343;28;20453;-73
2021/08/03 12:31:30;;;;;;;3.20;2.20;;;19.90;75.10;;;;;;4986910;28;20429;-73
2021/08/03 12:34:19;;;;;;;4.10;2.17;;;19.80;75.10;;;;;;4984146;28;20497;-72
2021/08/03 12:36:53;;;;;;;3.30;1.93;;;19.60;75.70;;;;;;4981289;28;20805;-71
2021/08/03 12:39:42;;;;;;;3.20;2.07;;;19.50;76.40;;;;;;4992469;28;20883;-73
2021/08/03 12:44:51;;;;;;;2.23;1.53;;;19.80;74.30;;;;;;4994117;28;20424;-72
2021/08/03 12:47:27;;;;;;;2.83;2.07;;;20.10;74.20;;;;;;4993417;28;20426;-72
2021/08/03 12:50:05;;;;;;;2.60;1.63;;;20.50;73.20;;;;;;4994774;28;20436;-73
2021/08/03 12:52:31;;;;;;;2.50;1.70;;;20.90;70.10;;;;;;4982725;28;20503;-71
2021/08/03 12:55:08;;;;;;;2.50;1.63;;;21.30;69.70;;;;;;4986702;28;20500;-72
2021/08/03 12:57:54;;;;;;;3.07;1.97;;;21.70;68.00;;;;;;4992927;28;20577;-73
2021/08/03 13:00:38;;;;;;;2.77;1.73;;;21.80;66.90;;;;;;4990198;28;20476;-73
2021/08/03 13:03:07;;;;;;;2.17;1.30;;;22.00;66.10;;;;;;4986093;28;20514;-72